createdAt,value
2022-09-01T00:00:06.643Z,961.63
2022-09-01T00:01:06.360Z,961.62
2022-09-01T00:02:06.594Z,961.6
2022-09-01T00:03:07.384Z,961.57
2022-09-01T00:04:06.416Z,961.6
2022-09-01T00:05:06.467Z,961.61
2022-09-01T00:06:06.511Z,961.62
2022-09-01T00:07:06.481Z,961.61
2022-09-01T00:08:06.456Z,961.64
2022-09-01T00:10:06.482Z,961.65
2022-09-01T00:13:06.383Z,961.63
2022-09-01T00:15:06.421Z,961.61
2022-09-01T00:17:06.453Z,961.62
2022-09-01T00:18:06.428Z,961.59
2022-09-01T00:19:06.497Z,961.58
2022-09-01T00:20:06.471Z,961.6
2022-09-01T00:21:07.492Z,961.56
2022-09-01T00:22:06.496Z,961.59
2022-09-01T00:23:06.480Z,961.56
2022-09-01T00:24:06.534Z,961.57
2022-09-01T00:25:06.411Z,961.59
2022-09-01T00:26:06.507Z,961.57
2022-09-01T00:27:06.534Z,961.58
2022-09-01T00:28:06.503Z,961.55
2022-09-01T00:29:06.477Z,961.56
2022-09-01T00:31:06.575Z,961.53
2022-09-01T00:32:07.558Z,961.57
2022-09-01T00:33:06.440Z,961.54
2022-09-01T00:34:06.513Z,961.56
2022-09-01T00:35:06.445Z,961.57
2022-09-01T00:36:06.445Z,961.56
2022-09-01T00:37:06.508Z,961.54
2022-09-01T00:38:07.638Z,961.56
2022-09-01T00:39:06.438Z,961.52
2022-09-01T00:40:06.524Z,961.51
2022-09-01T00:41:06.495Z,961.53
2022-09-01T00:42:06.556Z,961.5
2022-09-01T00:43:06.529Z,961.48
2022-09-01T00:44:06.447Z,961.44
2022-09-01T00:45:06.473Z,961.46
2022-09-01T00:46:06.578Z,961.42
2022-09-01T00:47:06.659Z,961.45
2022-09-01T00:49:06.471Z,961.43
2022-09-01T00:50:06.609Z,961.42
2022-09-01T00:55:06.646Z,961.38
2022-09-01T00:56:06.484Z,961.35
2022-09-01T00:57:06.487Z,961.44
2022-09-01T00:58:06.543Z,961.41
2022-09-01T00:59:06.506Z,961.44
2022-09-01T01:00:06.496Z,961.43
2022-09-01T01:02:06.530Z,961.45
2022-09-01T01:03:06.504Z,961.44
2022-09-01T01:04:06.500Z,961.46
2022-09-01T01:05:06.531Z,961.45
2022-09-01T01:06:06.503Z,961.47
2022-09-01T01:07:06.501Z,961.43
2022-09-01T01:09:06.620Z,961.46
2022-09-01T01:10:06.610Z,961.45
2022-09-01T01:11:06.514Z,961.47
2022-09-01T01:12:06.519Z,961.46
2022-09-01T01:13:06.525Z,961.45
2022-09-01T01:14:06.529Z,961.44
2022-09-01T01:15:06.532Z,961.45
2022-09-01T01:17:06.593Z,961.44
2022-09-01T01:18:06.621Z,961.41
2022-09-01T01:19:07.844Z,961.42
2022-09-01T01:21:06.635Z,961.41
2022-09-01T01:22:06.553Z,961.4
2022-09-01T01:23:06.554Z,961.38
2022-09-01T01:24:06.628Z,961.39
2022-09-01T01:25:06.560Z,961.42
2022-09-01T01:28:06.601Z,961.43
2022-09-01T01:29:06.668Z,961.4
2022-09-01T01:30:06.638Z,961.41
2022-09-01T01:32:06.675Z,961.39
2022-09-01T01:33:06.643Z,961.4
2022-09-01T01:34:06.572Z,961.33
2022-09-01T01:35:06.670Z,961.38
2022-09-01T01:36:06.572Z,961.36
2022-09-01T01:37:07.949Z,961.33
2022-09-01T01:39:06.575Z,961.31
2022-09-01T01:40:06.746Z,961.34
2022-09-01T01:42:06.591Z,961.33
2022-09-01T01:43:06.604Z,961.36
2022-09-01T01:44:06.599Z,961.37
2022-09-01T01:45:06.596Z,961.4
2022-09-01T01:46:06.721Z,961.38
2022-09-01T01:47:06.690Z,961.42
2022-09-01T01:48:06.661Z,961.43
2022-09-01T01:49:06.732Z,961.42
2022-09-01T01:51:06.607Z,961.44
2022-09-01T01:52:08.160Z,961.45
2022-09-01T01:53:11.220Z,961.47
2022-09-01T01:54:06.787Z,961.5
2022-09-01T01:55:06.623Z,961.49
2022-09-01T01:56:06.630Z,961.47
2022-09-01T01:58:06.624Z,961.51
2022-09-01T01:59:06.628Z,961.54
2022-09-01T02:00:06.649Z,961.51
2022-09-01T02:01:06.705Z,961.54
2022-09-01T02:02:06.749Z,961.55
2022-09-01T02:03:06.647Z,961.56
2022-09-01T02:04:06.757Z,961.57
2022-09-01T02:05:06.650Z,961.56
2022-09-01T02:06:06.661Z,961.58
2022-09-01T02:08:06.720Z,961.56
2022-09-01T02:09:06.649Z,961.59
2022-09-01T02:10:06.664Z,961.55
2022-09-01T02:11:06.723Z,961.57
2022-09-01T02:12:06.661Z,961.55
2022-09-01T02:13:06.761Z,961.59
2022-09-01T02:14:06.665Z,961.55
2022-09-01T02:17:06.767Z,961.57
2022-09-01T02:18:06.678Z,961.55
2022-09-01T02:19:06.677Z,961.56
2022-09-01T02:20:06.740Z,961.57
2022-09-01T02:21:06.690Z,961.56
2022-09-01T02:22:06.779Z,961.59
2022-09-01T02:23:06.697Z,961.57
2022-09-01T02:24:06.814Z,961.55
2022-09-01T02:25:06.691Z,961.5
2022-09-01T02:26:15.938Z,961.52
2022-09-01T02:27:06.924Z,961.54
2022-09-01T02:29:06.856Z,961.56
2022-09-01T02:30:06.817Z,961.54
2022-09-01T02:31:06.859Z,961.51
2022-09-01T02:33:06.711Z,961.5
2022-09-01T02:34:06.724Z,961.52
2022-09-01T02:35:06.730Z,961.5
2022-09-01T02:36:06.827Z,961.53
2022-09-01T02:37:06.725Z,961.5
2022-09-01T02:38:06.866Z,961.52
2022-09-01T02:39:08.050Z,961.58
2022-09-01T02:40:06.827Z,961.56
2022-09-01T02:41:06.769Z,961.61
2022-09-01T02:42:06.733Z,961.57
2022-09-01T02:44:06.881Z,961.59
2022-09-01T02:45:06.742Z,961.58
2022-09-01T02:47:06.751Z,961.56
2022-09-01T02:48:06.844Z,961.54
2022-09-01T02:49:07.915Z,961.53
2022-09-01T02:50:06.763Z,961.56
2022-09-01T02:51:06.857Z,961.54
2022-09-01T02:52:06.768Z,961.53
2022-09-01T02:53:06.780Z,961.55
2022-09-01T02:54:06.769Z,961.54
2022-09-01T02:55:06.762Z,961.57
2022-09-01T02:57:06.770Z,961.58
2022-09-01T03:01:08.008Z,961.59
2022-09-01T03:02:06.897Z,961.6
2022-09-01T03:03:06.798Z,961.64
2022-09-01T03:05:06.985Z,961.62
2022-09-01T03:06:06.797Z,961.65
2022-09-01T03:07:06.803Z,961.66
2022-09-01T03:08:06.907Z,961.64
2022-09-01T03:09:06.872Z,961.62
2022-09-01T03:10:06.854Z,961.65
2022-09-01T03:11:09.705Z,961.66
2022-09-01T03:12:06.962Z,961.63
2022-09-01T03:13:08.068Z,961.66
2022-09-01T03:14:06.914Z,961.64
2022-09-01T03:15:06.881Z,961.6
2022-09-01T03:16:07.550Z,961.61
2022-09-01T03:17:06.916Z,961.59
2022-09-01T03:18:06.823Z,961.6
2022-09-01T03:19:06.943Z,961.62
2022-09-01T03:20:06.921Z,961.6
2022-09-01T03:21:06.831Z,961.57
2022-09-01T03:22:06.956Z,961.54
2022-09-01T03:23:06.843Z,961.57
2022-09-01T03:24:06.847Z,961.59
2022-09-01T03:25:06.838Z,961.58
2022-09-01T03:26:06.833Z,961.6
2022-09-01T03:27:06.834Z,961.53
2022-09-01T03:28:06.854Z,961.57
2022-09-01T03:29:06.848Z,961.6
2022-09-01T03:30:06.892Z,961.61
2022-09-01T03:31:06.862Z,961.62
2022-09-01T03:32:06.905Z,961.63
2022-09-01T03:33:07.006Z,961.57
2022-09-01T03:34:06.973Z,961.59
2022-09-01T03:36:07.510Z,961.55
2022-09-01T03:37:06.863Z,961.56
2022-09-01T03:39:08.229Z,961.53
2022-09-01T03:40:06.938Z,961.56
2022-09-01T03:41:06.954Z,961.48
2022-09-01T03:42:06.876Z,961.54
2022-09-01T03:43:06.890Z,961.56
2022-09-01T03:44:06.961Z,961.53
2022-09-01T03:46:06.936Z,961.5
2022-09-01T03:48:07.033Z,961.51
2022-09-01T03:49:06.998Z,961.5
2022-09-01T03:50:06.958Z,961.52
2022-09-01T03:51:06.921Z,961.49
2022-09-01T03:52:06.900Z,961.53
2022-09-01T03:53:06.972Z,961.52
2022-09-01T03:54:06.908Z,961.55
2022-09-01T03:55:07.015Z,961.54
2022-09-01T03:56:07.089Z,961.58
2022-09-01T03:57:06.909Z,961.53
2022-09-01T03:58:09.327Z,961.54
2022-09-01T03:59:07.618Z,961.52
2022-09-01T04:00:06.925Z,961.54
2022-09-01T04:01:08.256Z,961.53
2022-09-01T04:02:07.109Z,961.5
2022-09-01T04:04:06.941Z,961.49
2022-09-01T04:05:08.510Z,961.48
2022-09-01T04:06:07.259Z,961.45
2022-09-01T04:07:07.019Z,961.46
2022-09-01T04:08:07.005Z,961.49
2022-09-01T04:09:07.049Z,961.47
2022-09-01T04:10:07.027Z,961.43
2022-09-01T04:11:06.950Z,961.42
2022-09-01T04:13:06.951Z,961.47
2022-09-01T04:14:07.961Z,961.43
2022-09-01T04:15:06.970Z,961.47
2022-09-01T04:16:07.051Z,961.46
2022-09-01T04:17:06.965Z,961.43
2022-09-01T04:19:07.061Z,961.46
2022-09-01T04:20:07.111Z,961.44
2022-09-01T04:21:07.071Z,961.41
2022-09-01T04:22:07.038Z,961.44
2022-09-01T04:23:07.005Z,961.43
2022-09-01T04:24:06.977Z,961.44
2022-09-01T04:25:07.055Z,961.45
2022-09-01T04:26:06.983Z,961.43
2022-09-01T04:28:06.985Z,961.42
2022-09-01T04:31:06.999Z,961.41
2022-09-01T04:32:07.038Z,961.44
2022-09-01T04:33:07.103Z,961.46
2022-09-01T04:34:07.008Z,961.44
2022-09-01T04:35:07.009Z,961.43
2022-09-01T04:36:07.024Z,961.48
2022-09-01T04:37:07.011Z,961.46
2022-09-01T04:38:07.131Z,961.43
2022-09-01T04:40:07.057Z,961.45
2022-09-01T04:42:07.107Z,961.46
2022-09-01T04:43:08.106Z,961.42
2022-09-01T04:44:07.134Z,961.46
2022-09-01T04:45:08.995Z,961.45
2022-09-01T04:46:07.426Z,961.47
2022-09-01T04:47:07.039Z,961.45
2022-09-01T04:48:07.038Z,961.48
2022-09-01T04:49:07.045Z,961.45
2022-09-01T04:50:07.051Z,961.44
2022-09-01T04:51:07.044Z,961.34
2022-09-01T04:52:07.049Z,961.47
2022-09-01T04:53:07.193Z,961.46
2022-09-01T04:54:07.116Z,961.43
2022-09-01T04:55:07.059Z,961.44
2022-09-01T04:56:07.157Z,961.46
2022-09-01T04:57:07.085Z,961.44
2022-09-01T04:58:10.017Z,961.46
2022-09-01T04:59:07.148Z,961.43
2022-09-01T05:00:07.079Z,961.45
2022-09-01T05:02:07.195Z,961.43
2022-09-01T05:03:07.130Z,961.41
2022-09-01T05:04:07.091Z,961.44
2022-09-01T05:06:07.234Z,961.43
2022-09-01T05:07:07.076Z,961.45
2022-09-01T05:08:07.098Z,961.49
2022-09-01T05:09:07.086Z,961.47
2022-09-01T05:10:07.295Z,961.48
2022-09-01T05:11:07.182Z,961.49
2022-09-01T05:12:07.091Z,961.46
2022-09-01T05:13:07.215Z,961.47
2022-09-01T05:14:07.109Z,961.43
2022-09-01T05:15:07.250Z,961.48
2022-09-01T05:16:07.132Z,961.42
2022-09-01T05:17:07.107Z,961.44
2022-09-01T05:18:07.109Z,961.41
2022-09-01T05:19:07.214Z,961.43
2022-09-01T05:20:07.189Z,961.42
2022-09-01T05:21:07.129Z,961.35
2022-09-01T05:22:07.116Z,961.37
2022-09-01T05:23:07.187Z,961.35
2022-09-01T05:24:07.124Z,961.36
2022-09-01T05:25:07.122Z,961.34
2022-09-01T05:26:07.197Z,961.35
2022-09-01T05:27:07.177Z,961.31
2022-09-01T05:28:07.232Z,961.33
2022-09-01T05:29:07.144Z,961.32
2022-09-01T05:30:07.144Z,961.33
2022-09-01T05:31:07.184Z,961.34
2022-09-01T05:32:07.202Z,961.3
2022-09-01T05:33:07.150Z,961.33
2022-09-01T05:34:07.160Z,961.31
2022-09-01T05:35:07.142Z,961.33
2022-09-01T05:36:07.148Z,961.35
2022-09-01T05:38:07.224Z,961.34
2022-09-01T05:39:07.163Z,961.32
2022-09-01T05:41:07.165Z,961.36
2022-09-01T05:42:07.287Z,961.35
2022-09-01T05:43:07.176Z,961.36
2022-09-01T05:45:07.287Z,961.37
2022-09-01T05:46:07.447Z,961.39
2022-09-01T05:47:07.250Z,961.4
2022-09-01T05:49:07.259Z,961.41
2022-09-01T05:51:14.373Z,961.44
2022-09-01T05:53:07.204Z,961.45
2022-09-01T05:54:07.300Z,961.43
2022-09-01T05:55:07.198Z,961.42
2022-09-01T05:56:08.591Z,961.43
2022-09-01T05:57:23.731Z,961.44
2022-09-01T05:58:07.457Z,961.43
2022-09-01T05:59:25.487Z,961.41
2022-09-01T06:00:07.219Z,961.39
2022-09-01T06:01:07.228Z,961.42
2022-09-01T06:03:07.421Z,961.43
2022-09-01T06:04:07.222Z,961.42
2022-09-01T06:05:07.229Z,961.44
2022-09-01T06:06:07.325Z,961.46
2022-09-01T06:07:08.101Z,961.49
2022-09-01T06:10:07.399Z,961.47
2022-09-01T06:11:07.244Z,961.49
2022-09-01T06:12:07.349Z,961.51
2022-09-01T06:13:07.243Z,961.5
2022-09-01T06:14:07.254Z,961.47
2022-09-01T06:15:07.261Z,961.52
2022-09-01T06:16:08.244Z,961.51
2022-09-01T06:18:07.261Z,961.54
2022-09-01T06:19:07.400Z,961.46
2022-09-01T06:20:07.376Z,961.5
2022-09-01T06:21:07.264Z,961.53
2022-09-01T06:22:07.422Z,961.54
2022-09-01T06:23:07.374Z,961.55
2022-09-01T06:24:07.339Z,961.51
2022-09-01T06:26:07.289Z,961.48
2022-09-01T06:27:07.351Z,961.51
2022-09-01T06:28:07.322Z,961.52
2022-09-01T06:29:07.382Z,961.5
2022-09-01T06:30:07.453Z,961.52
2022-09-01T06:31:07.368Z,961.53
2022-09-01T06:33:07.294Z,961.48
2022-09-01T06:34:07.317Z,961.55
2022-09-01T06:35:07.304Z,961.47
2022-09-01T06:36:07.298Z,961.58
2022-09-01T06:37:07.306Z,961.55
2022-09-01T06:38:07.321Z,961.49
2022-09-01T06:39:07.326Z,961.47
2022-09-01T06:40:07.334Z,961.41
2022-09-01T06:41:07.305Z,961.48
2022-09-01T06:42:07.318Z,961.43
2022-09-01T06:43:07.446Z,961.44
2022-09-01T06:44:09.932Z,961.54
2022-09-01T06:45:07.323Z,961.48
2022-09-01T06:46:07.334Z,961.55
2022-09-01T06:47:07.377Z,961.57
2022-09-01T06:48:07.332Z,961.55
2022-09-01T06:49:07.445Z,961.58
2022-09-01T06:50:07.340Z,961.59
2022-09-01T06:52:07.524Z,961.58
2022-09-01T06:53:34.870Z,961.62
2022-09-01T06:54:11.285Z,961.67
2022-09-01T06:55:07.952Z,961.66
2022-09-01T06:56:07.352Z,961.67
2022-09-01T06:58:07.458Z,961.69
2022-09-01T06:59:07.385Z,961.7
2022-09-01T07:00:07.363Z,961.73
2022-09-01T07:01:07.370Z,961.72
2022-09-01T07:02:07.485Z,961.71
2022-09-01T07:03:07.543Z,961.72
2022-09-01T07:05:09.170Z,961.73
2022-09-01T07:06:07.503Z,961.75
2022-09-01T07:08:07.503Z,961.73
2022-09-01T07:09:37.834Z,961.74
2022-09-01T07:10:21.168Z,961.76
2022-09-01T07:12:08.068Z,961.77
2022-09-01T07:12:08.934Z,961.76
2022-09-01T07:13:07.528Z,961.78
2022-09-01T07:14:15.844Z,961.79
2022-09-01T07:18:07.563Z,961.8
2022-09-01T07:19:07.412Z,961.82
2022-09-01T07:20:25.826Z,961.81
2022-09-01T07:21:36.046Z,961.8
2022-09-01T07:22:07.885Z,961.82
2022-09-01T07:23:07.421Z,961.84
2022-09-01T07:24:08.021Z,961.85
2022-09-01T07:25:11.686Z,961.87
2022-09-01T07:26:07.742Z,961.86
2022-09-01T07:27:08.050Z,961.87
2022-09-01T07:28:07.617Z,961.91
2022-09-01T07:29:07.576Z,961.89
2022-09-01T07:30:07.430Z,961.92
2022-09-01T07:34:37.744Z,961.92
2022-09-01T07:35:07.448Z,961.91
2022-09-01T07:36:29.881Z,961.89
2022-09-01T07:43:07.608Z,961.91
2022-09-01T07:44:07.479Z,961.92
2022-09-01T07:47:52.217Z,961.93
2022-09-01T07:48:07.616Z,961.94
2022-09-01T07:50:24.428Z,961.93
2022-09-01T07:52:07.681Z,961.92
2022-09-01T07:53:07.492Z,961.93
2022-09-01T07:54:07.490Z,961.94
2022-09-01T07:55:07.493Z,961.95
2022-09-01T07:56:07.612Z,961.99
2022-09-01T07:57:07.501Z,961.94
2022-09-01T07:58:07.503Z,961.97
2022-09-01T07:59:07.506Z,961.96
2022-09-01T08:00:07.506Z,961.97
2022-09-01T08:01:08.900Z,961.96
2022-09-01T08:02:07.627Z,961.95
2022-09-01T08:03:07.765Z,961.97
2022-09-01T08:05:07.515Z,961.95
2022-09-01T08:06:07.587Z,961.97
2022-09-01T08:07:07.532Z,961.99
2022-09-01T08:08:18.502Z,961.93
2022-09-01T08:09:07.522Z,961.95
2022-09-01T08:11:07.553Z,962
2022-09-01T08:12:07.676Z,961.98
2022-09-01T08:13:07.537Z,961.97
2022-09-01T08:14:07.538Z,961.94
2022-09-01T08:15:40.794Z,961.96
2022-09-01T08:16:08.597Z,961.97
2022-09-01T08:17:17.801Z,961.99
2022-09-01T08:18:07.846Z,962.01
2022-09-01T08:19:16.324Z,962
2022-09-01T08:20:07.640Z,961.98
2022-09-01T08:21:08.545Z,962.02
2022-09-01T08:22:07.567Z,962.01
2022-09-01T08:24:07.566Z,962.02
2022-09-01T08:25:07.570Z,962.05
2022-09-01T08:27:07.575Z,962.04
2022-09-01T08:28:07.690Z,962.06
2022-09-01T08:30:07.730Z,962.05
2022-09-01T08:31:11.028Z,962.09
2022-09-01T08:32:07.699Z,962.07
2022-09-01T08:33:10.825Z,962.09
2022-09-01T08:34:07.722Z,962.11
2022-09-01T08:35:07.598Z,962.1
2022-09-01T08:36:07.594Z,962.12
2022-09-01T08:37:07.591Z,962.13
2022-09-01T08:38:07.764Z,962.07
2022-09-01T08:39:07.632Z,962.12
2022-09-01T08:40:07.745Z,962.11
2022-09-01T08:43:09.932Z,962.1
2022-09-01T08:44:07.933Z,962.09
2022-09-01T08:45:07.742Z,962.13
2022-09-01T08:46:07.645Z,962.1
2022-09-01T08:47:07.780Z,962.17
2022-09-01T08:48:50.930Z,962.13
2022-09-01T08:49:27.274Z,962.15
2022-09-01T08:50:07.674Z,962.14
2022-09-01T08:51:13.568Z,962.15
2022-09-01T08:53:09.671Z,962.16
2022-09-01T08:54:07.758Z,962.13
2022-09-01T08:55:07.644Z,962.1
2022-09-01T08:56:07.650Z,962.13
2022-09-01T08:57:07.770Z,962.11
2022-09-01T08:58:07.724Z,962.13
2022-09-01T08:59:07.657Z,962.1
2022-09-01T09:00:07.655Z,962.11
2022-09-01T09:02:07.685Z,962.09
2022-09-01T09:03:08.732Z,962.12
2022-09-01T09:04:07.925Z,962.15
2022-09-01T09:05:16.070Z,962.14
2022-09-01T09:06:07.672Z,962.16
2022-09-01T09:07:07.732Z,962.13
2022-09-01T09:08:07.943Z,962.18
2022-09-01T09:09:07.679Z,962.2
2022-09-01T09:10:07.753Z,962.17
2022-09-01T09:12:08.687Z,962.18
2022-09-01T09:13:07.686Z,962.11
2022-09-01T09:14:07.688Z,962.09
2022-09-01T09:15:07.795Z,962.1
2022-09-01T09:16:08.278Z,962.07
2022-09-01T09:18:19.941Z,962.1
2022-09-01T09:19:07.941Z,962.08
2022-09-01T09:20:08.844Z,962.15
2022-09-01T09:21:07.704Z,962.16
2022-09-01T09:22:07.703Z,962.2
2022-09-01T09:23:07.717Z,962.25
2022-09-01T09:24:07.716Z,962.24
2022-09-01T09:25:08.285Z,962.27
2022-09-01T09:26:08.155Z,962.26
2022-09-01T09:27:09.695Z,962.25
2022-09-01T09:30:09.723Z,962.22
2022-09-01T09:31:08.966Z,962.2
2022-09-01T09:32:22.406Z,962.18
2022-09-01T09:34:07.845Z,962.14
2022-09-01T09:35:07.748Z,962.12
2022-09-01T09:36:07.813Z,962.03
2022-09-01T09:37:07.749Z,962.01
2022-09-01T09:38:07.851Z,962.04
2022-09-01T09:39:07.748Z,962.02
2022-09-01T09:40:08.544Z,962.08
2022-09-01T09:41:16.298Z,962.07
2022-09-01T09:42:07.952Z,962.1
2022-09-01T09:43:07.760Z,962.08
2022-09-01T09:44:09.205Z,962.11
2022-09-01T09:45:08.127Z,962.16
2022-09-01T09:46:23.102Z,962.19
2022-09-01T09:47:22.034Z,962.22
2022-09-01T09:48:07.901Z,962.18
2022-09-01T09:49:07.773Z,962.12
2022-09-01T09:50:07.774Z,962.07
2022-09-01T09:51:07.778Z,962.02
2022-09-01T09:52:07.900Z,961.96
2022-09-01T09:53:07.786Z,961.95
2022-09-01T09:54:07.840Z,961.97
2022-09-01T09:55:07.796Z,961.88
2022-09-01T09:57:07.835Z,961.97
2022-09-01T09:58:07.910Z,961.96
2022-09-01T09:59:07.795Z,961.97
2022-09-01T10:00:07.800Z,961.92
2022-09-01T10:01:07.855Z,961.91
2022-09-01T10:03:10.063Z,961.9
2022-09-01T10:04:07.873Z,961.87
2022-09-01T10:05:07.819Z,961.88
2022-09-01T10:06:07.955Z,961.86
2022-09-01T10:07:07.923Z,961.84
2022-09-01T10:08:07.892Z,961.8
2022-09-01T10:09:07.890Z,961.81
2022-09-01T10:12:08.005Z,961.82
2022-09-01T10:13:07.841Z,961.81
2022-09-01T10:14:07.841Z,961.83
2022-09-01T10:16:08.752Z,961.86
2022-09-01T10:17:08.041Z,961.85
2022-09-01T10:18:22.302Z,961.87
2022-09-01T10:19:09.274Z,961.9
2022-09-01T10:20:07.860Z,961.85
2022-09-01T10:21:07.869Z,961.86
2022-09-01T10:22:07.871Z,961.8
2022-09-01T10:23:14.880Z,961.83
2022-09-01T10:24:20.956Z,961.76
2022-09-01T10:25:10.189Z,961.75
2022-09-01T10:26:09.826Z,961.76
2022-09-01T10:28:08.017Z,961.74
2022-09-01T10:29:08.386Z,961.76
2022-09-01T10:30:19.109Z,961.73
2022-09-01T10:31:09.058Z,961.76
2022-09-01T10:32:28.367Z,961.72
2022-09-01T10:33:19.051Z,961.74
2022-09-01T10:34:07.963Z,961.71
2022-09-01T10:35:07.968Z,961.7
2022-09-01T10:36:08.023Z,961.69
2022-09-01T10:37:10.494Z,961.75
2022-09-01T10:38:08.307Z,961.7
2022-09-01T10:39:09.060Z,961.71
2022-09-01T10:40:07.930Z,961.77
2022-09-01T10:41:08.796Z,961.73
2022-09-01T10:42:07.928Z,961.71
2022-09-01T10:43:12.374Z,961.78
2022-09-01T10:44:09.110Z,961.79
2022-09-01T10:45:08.013Z,961.81
2022-09-01T10:46:09.187Z,961.82
2022-09-01T10:47:08.222Z,961.75
2022-09-01T10:48:08.521Z,961.74
2022-09-01T10:50:10.285Z,961.73
2022-09-01T10:52:12.906Z,961.67
2022-09-01T10:54:08.123Z,961.66
2022-09-01T10:55:07.941Z,961.61
2022-09-01T10:57:08.853Z,961.58
2022-09-01T10:58:09.459Z,961.54
2022-09-01T10:59:34.722Z,961.59
2022-09-01T11:01:11.475Z,961.61
2022-09-01T11:02:25.737Z,961.58
2022-09-01T11:03:30.513Z,961.57
2022-09-01T11:04:08.088Z,961.59
2022-09-01T11:05:07.979Z,961.55
2022-09-01T11:06:12.254Z,961.51
2022-09-01T11:07:14.896Z,961.5
2022-09-01T11:08:15.445Z,961.52
2022-09-01T11:09:08.155Z,961.51
2022-09-01T11:10:11.362Z,961.52
2022-09-01T11:11:08.099Z,961.54
2022-09-01T11:13:08.093Z,961.57
2022-09-01T11:14:07.991Z,961.52
2022-09-01T11:15:09.140Z,961.56
2022-09-01T11:16:08.083Z,961.54
2022-09-01T11:17:08.095Z,961.51
2022-09-01T11:18:08.002Z,961.54
2022-09-01T11:19:11.340Z,961.49
2022-09-01T11:20:07.999Z,961.46
2022-09-01T11:21:08.060Z,961.47
2022-09-01T11:22:08.009Z,961.46
2022-09-01T11:23:08.008Z,961.49
2022-09-01T11:24:08.092Z,961.48
2022-09-01T11:26:21.468Z,961.49
2022-09-01T11:27:08.019Z,961.5
2022-09-01T11:28:08.137Z,961.53
2022-09-01T11:29:08.103Z,961.54
2022-09-01T11:30:08.033Z,961.52
2022-09-01T11:32:08.068Z,961.55
2022-09-01T11:33:08.045Z,961.52
2022-09-01T11:35:08.071Z,961.5
2022-09-01T11:36:08.049Z,961.48
2022-09-01T11:37:08.056Z,961.46
2022-09-01T11:38:08.116Z,961.44
2022-09-01T11:39:08.053Z,961.47
2022-09-01T11:40:08.192Z,961.45
2022-09-01T11:41:08.119Z,961.44
2022-09-01T11:42:08.073Z,961.46
2022-09-01T11:43:12.482Z,961.45
2022-09-01T11:44:08.204Z,961.47
2022-09-01T11:45:08.074Z,961.4
2022-09-01T11:46:08.150Z,961.43
2022-09-01T11:47:12.073Z,961.37
2022-09-01T11:48:08.067Z,961.39
2022-09-01T11:50:08.081Z,961.37
2022-09-01T11:52:08.164Z,961.39
2022-09-01T11:53:08.083Z,961.4
2022-09-01T11:54:08.095Z,961.44
2022-09-01T11:55:08.175Z,961.46
2022-09-01T11:57:08.208Z,961.44
2022-09-01T11:59:08.095Z,961.39
2022-09-01T12:01:08.179Z,961.4
2022-09-01T12:02:08.198Z,961.36
2022-09-01T12:03:08.331Z,961.37
2022-09-01T12:04:08.178Z,961.39
2022-09-01T12:05:08.117Z,961.44
2022-09-01T12:06:08.227Z,961.4
2022-09-01T12:08:08.153Z,961.38
2022-09-01T12:09:08.128Z,961.35
2022-09-01T12:10:08.196Z,961.37
2022-09-01T12:11:08.202Z,961.36
2022-09-01T12:12:08.127Z,961.4
2022-09-01T12:14:11.048Z,961.42
2022-09-01T12:17:08.295Z,961.55
2022-09-01T12:18:08.145Z,961.58
2022-09-01T12:19:08.148Z,961.57
2022-09-01T12:21:08.159Z,961.54
2022-09-01T12:22:08.170Z,961.51
2022-09-01T12:23:08.160Z,961.5
2022-09-01T12:24:08.257Z,961.53
2022-09-01T12:25:08.318Z,961.54
2022-09-01T12:26:08.165Z,961.53
2022-09-01T12:27:08.249Z,961.52
2022-09-01T12:28:08.195Z,961.48
2022-09-01T12:29:08.197Z,961.44
2022-09-01T12:30:08.182Z,961.41
2022-09-01T12:31:08.181Z,961.37
2022-09-01T12:32:08.346Z,961.3
2022-09-01T12:33:24.145Z,961.28
2022-09-01T12:34:08.196Z,961.27
2022-09-01T12:35:11.428Z,961.29
2022-09-01T12:36:08.203Z,961.27
2022-09-01T12:37:08.207Z,961.32
2022-09-01T12:38:09.612Z,961.31
2022-09-01T12:39:08.273Z,961.35
2022-09-01T12:40:08.225Z,961.37
2022-09-01T12:41:08.470Z,961.41
2022-09-01T12:42:08.375Z,961.43
2022-09-01T12:43:09.650Z,961.44
2022-09-01T12:45:08.966Z,961.4
2022-09-01T12:46:08.281Z,961.35
2022-09-01T12:47:08.214Z,961.36
2022-09-01T12:48:08.224Z,961.29
2022-09-01T12:50:08.231Z,961.24
2022-09-01T12:51:09.320Z,961.27
2022-09-01T12:52:08.243Z,961.23
2022-09-01T12:54:09.326Z,961.2
2022-09-01T12:55:08.241Z,961.21
2022-09-01T12:56:08.239Z,961.17
2022-09-01T12:57:08.250Z,961.2
2022-09-01T12:58:08.357Z,961.21
2022-09-01T12:59:12.046Z,961.22
2022-09-01T13:00:09.342Z,961.2
2022-09-01T13:01:12.246Z,961.18
2022-09-01T13:02:08.487Z,961.15
2022-09-01T13:03:08.528Z,961.09
2022-09-01T13:04:08.279Z,961.06
2022-09-01T13:05:08.285Z,961.09
2022-09-01T13:06:08.269Z,961.04
2022-09-01T13:08:08.338Z,961.03
2022-09-01T13:09:08.275Z,961.1
2022-09-01T13:10:08.285Z,961.15
2022-09-01T13:11:08.287Z,961.17
2022-09-01T13:12:08.458Z,961.19
2022-09-01T13:13:08.397Z,961.21
2022-09-01T13:14:08.289Z,961.16
2022-09-01T13:15:08.336Z,961.12
2022-09-01T13:16:08.359Z,961.13
2022-09-01T13:17:10.114Z,961.1
2022-09-01T13:18:08.518Z,961.11
2022-09-01T13:19:11.706Z,961.15
2022-09-01T13:20:08.369Z,961.1
2022-09-01T13:21:08.421Z,961.12
2022-09-01T13:22:08.315Z,961.16
2022-09-01T13:23:08.361Z,961.22
2022-09-01T13:24:08.325Z,961.25
2022-09-01T13:25:08.323Z,961.26
2022-09-01T13:26:08.370Z,961.24
2022-09-01T13:27:23.919Z,961.2
2022-09-01T13:28:08.513Z,961.18
2022-09-01T13:30:08.349Z,961.09
2022-09-01T13:31:32.740Z,961.05
2022-09-01T13:32:22.314Z,961.06
2022-09-01T13:33:23.537Z,961.02
2022-09-01T13:34:10.538Z,961
2022-09-01T13:35:08.351Z,960.98
2022-09-01T13:37:08.341Z,960.93
2022-09-01T13:38:08.382Z,960.92
2022-09-01T13:39:08.352Z,960.97
2022-09-01T13:40:08.400Z,960.93
2022-09-01T13:41:08.390Z,960.92
2022-09-01T13:42:08.384Z,960.94
2022-09-01T13:43:08.381Z,960.87
2022-09-01T13:44:08.386Z,960.83
2022-09-01T13:45:08.366Z,960.81
2022-09-01T13:47:30.326Z,960.78
2022-09-01T13:48:16.587Z,960.77
2022-09-01T13:50:10.715Z,960.74
2022-09-01T13:51:18.358Z,960.71
2022-09-01T13:52:08.573Z,960.68
2022-09-01T13:53:08.406Z,960.7
2022-09-01T13:54:08.397Z,960.73
2022-09-01T13:55:08.387Z,960.72
2022-09-01T13:56:08.403Z,960.74
2022-09-01T13:57:08.482Z,960.8
2022-09-01T13:58:08.500Z,960.82
2022-09-01T13:59:08.422Z,960.85
2022-09-01T14:00:08.414Z,960.87
2022-09-01T14:01:08.718Z,960.83
2022-09-01T14:02:08.487Z,960.87
2022-09-01T14:03:08.482Z,960.94
2022-09-01T14:04:08.476Z,960.97
2022-09-01T14:05:08.433Z,960.98
2022-09-01T14:06:08.424Z,960.96
2022-09-01T14:07:08.426Z,960.95
2022-09-01T14:08:08.427Z,960.93
2022-09-01T14:09:08.435Z,960.91
2022-09-01T14:10:08.489Z,960.84
2022-09-01T14:11:08.527Z,960.87
2022-09-01T14:12:08.530Z,960.85
2022-09-01T14:13:08.441Z,960.81
2022-09-01T14:14:08.444Z,960.78
2022-09-01T14:15:14.737Z,960.79
2022-09-01T14:16:08.524Z,960.76
2022-09-01T14:17:08.536Z,960.75
2022-09-01T14:18:08.503Z,960.8
2022-09-01T14:19:08.465Z,960.79
2022-09-01T14:20:08.538Z,960.83
2022-09-01T14:22:08.581Z,960.87
2022-09-01T14:24:08.474Z,960.82
2022-09-01T14:25:08.629Z,960.81
2022-09-01T14:26:08.561Z,960.78
2022-09-01T14:28:08.651Z,960.8
2022-09-01T14:29:08.590Z,960.84
2022-09-01T14:30:08.517Z,960.74
2022-09-01T14:31:08.921Z,960.73
2022-09-01T14:32:08.552Z,960.74
2022-09-01T14:33:08.522Z,960.81
2022-09-01T14:34:08.504Z,960.84
2022-09-01T14:35:08.500Z,960.8
2022-09-01T14:36:10.995Z,960.73
2022-09-01T14:37:08.801Z,960.69
2022-09-01T14:38:08.571Z,960.68
2022-09-01T14:39:08.512Z,960.65
2022-09-01T14:40:08.543Z,960.63